sensor_id;sensor_type;location;lat;lon;timestamp;P1;durP1;ratioP1;P2;durP2;ratioP2
3841;SDS011;1936;47.074;15.336;2023-02-20T00:00:51;2.63;;;2.20;;
3841;SDS011;1936;47.074;15.336;2023-02-20T00:02:54;2.77;;;1.13;;
3841;SDS011;1936;47.074;15.336;2023-02-20T00:04:59;2.33;;;1.00;;
3841;SDS011;1936;47.074;15.336;2023-02-20T00:07:02;2.63;;;1.30;;
3841;SDS011;1936;47.074;15.336;2023-02-20T00:09:06;1.33;;;0.67;;
3841;SDS011;1936;47.074;15.336;2023-02-20T00:11:09;0.60;;;0.40;;
3841;SDS011;1936;47.074;15.336;2023-02-20T00:13:12;1.23;;;0.60;;
3841;SDS011;1936;47.074;15.336;2023-02-20T00:15:19;0.60;;;0.40;;
3841;SDS011;1936;47.074;15.336;2023-02-20T00:17:23;0.80;;;0.50;;
3841;SDS011;1936;47.074;15.336;2023-02-20T00:19:28;0.87;;;0.50;;
3841;SDS011;1936;47.074;15.336;2023-02-20T00:21:33;1.73;;;1.03;;
3841;SDS011;1936;47.074;15.336;2023-02-20T00:23:36;1.00;;;0.60;;
3841;SDS011;1936;47.074;15.336;2023-02-20T00:25:42;0.90;;;0.57;;
3841;SDS011;1936;47.074;15.336;2023-02-20T00:27:45;1.13;;;0.57;;
3841;SDS011;1936;47.074;15.336;2023-02-20T00:29:49;1.13;;;0.63;;
3841;SDS011;1936;47.074;15.336;2023-02-20T00:31:53;0.93;;;0.50;;
3841;SDS011;1936;47.074;15.336;2023-02-20T00:33:57;1.53;;;0.60;;
3841;SDS011;1936;47.074;15.336;2023-02-20T00:36:01;0.93;;;0.53;;
3841;SDS011;1936;47.074;15.336;2023-02-20T00:38:05;1.20;;;0.80;;
3841;SDS011;1936;47.074;15.336;2023-02-20T00:40:09;1.10;;;0.70;;
3841;SDS011;1936;47.074;15.336;2023-02-20T00:42:13;1.13;;;0.73;;
3841;SDS011;1936;47.074;15.336;2023-02-20T00:44:16;3.38;;;0.60;;
3841;SDS011;1936;47.074;15.336;2023-02-20T00:46:19;2.28;;;0.68;;
3841;SDS011;1936;47.074;15.336;2023-02-20T00:48:23;0.90;;;0.60;;
3841;SDS011;1936;47.074;15.336;2023-02-20T00:50:26;0.70;;;0.40;;
3841;SDS011;1936;47.074;15.336;2023-02-20T00:52:30;1.02;;;0.70;;
3841;SDS011;1936;47.074;15.336;2023-02-20T00:54:34;1.13;;;0.73;;
3841;SDS011;1936;47.074;15.336;2023-02-20T00:56:38;1.50;;;0.50;;
3841;SDS011;1936;47.074;15.336;2023-02-20T00:58:42;1.60;;;0.90;;
3841;SDS011;1936;47.074;15.336;2023-02-20T01:00:45;1.30;;;0.77;;
3841;SDS011;1936;47.074;15.336;2023-02-20T01:02:50;0.90;;;0.80;;
3841;SDS011;1936;47.074;15.336;2023-02-20T01:04:53;0.70;;;0.50;;
3841;SDS011;1936;47.074;15.336;2023-02-20T01:06:57;1.00;;;0.52;;
3841;SDS011;1936;47.074;15.336;2023-02-20T01:09:00;1.40;;;0.80;;
3841;SDS011;1936;47.074;15.336;2023-02-20T01:11:05;0.70;;;0.52;;
3841;SDS011;1936;47.074;15.336;2023-02-20T01:13:08;1.50;;;0.60;;
3841;SDS011;1936;47.074;15.336;2023-02-20T01:15:12;1.90;;;0.80;;
3841;SDS011;1936;47.074;15.336;2023-02-20T01:17:16;1.30;;;0.80;;
3841;SDS011;1936;47.074;15.336;2023-02-20T01:19:20;0.95;;;0.80;;
3841;SDS011;1936;47.074;15.336;2023-02-20T01:21:25;1.30;;;0.75;;
3841;SDS011;1936;47.074;15.336;2023-02-20T01:23:28;1.35;;;0.90;;
3841;SDS011;1936;47.074;15.336;2023-02-20T01:25:32;1.00;;;0.63;;
3841;SDS011;1936;47.074;15.336;2023-02-20T01:27:37;1.30;;;0.60;;
3841;SDS011;1936;47.074;15.336;2023-02-20T01:29:40;4.30;;;1.50;;
3841;SDS011;1936;47.074;15.336;2023-02-20T01:31:47;2.97;;;1.27;;
3841;SDS011;1936;47.074;15.336;2023-02-20T01:33:52;5.70;;;2.50;;
3841;SDS011;1936;47.074;15.336;2023-02-20T01:35:56;7.22;;;3.33;;
3841;SDS011;1936;47.074;15.336;2023-02-20T01:37:59;3.75;;;1.67;;
3841;SDS011;1936;47.074;15.336;2023-02-20T01:40:07;3.50;;;1.70;;
3841;SDS011;1936;47.074;15.336;2023-02-20T01:42:17;3.15;;;1.35;;
3841;SDS011;1936;47.074;15.336;2023-02-20T01:44:26;2.17;;;1.25;;
3841;SDS011;1936;47.074;15.336;2023-02-20T01:46:41;1.17;;;0.98;;
3841;SDS011;1936;47.074;15.336;2023-02-20T01:48:48;2.75;;;1.30;;
3841;SDS011;1936;47.074;15.336;2023-02-20T01:50:53;1.92;;;1.10;;
3841;SDS011;1936;47.074;15.336;2023-02-20T01:53:02;1.10;;;0.80;;
3841;SDS011;1936;47.074;15.336;2023-02-20T01:55:10;1.75;;;1.10;;
3841;SDS011;1936;47.074;15.336;2023-02-20T01:57:17;1.10;;;0.80;;
3841;SDS011;1936;47.074;15.336;2023-02-20T01:59:24;2.97;;;1.00;;
3841;SDS011;1936;47.074;15.336;2023-02-20T02:01:31;1.30;;;1.10;;
3841;SDS011;1936;47.074;15.336;2023-02-20T02:03:36;1.20;;;1.10;;
3841;SDS011;1936;47.074;15.336;2023-02-20T02:05:44;1.90;;;1.35;;
3841;SDS011;1936;47.074;15.336;2023-02-20T02:07:50;2.75;;;1.77;;
3841;SDS011;1936;47.074;15.336;2023-02-20T02:09:55;1.45;;;0.85;;
3841;SDS011;1936;47.074;15.336;2023-02-20T02:12:01;1.50;;;0.60;;
3841;SDS011;1936;47.074;15.336;2023-02-20T02:14:05;1.58;;;0.90;;
3841;SDS011;1936;47.074;15.336;2023-02-20T02:16:14;16.00;;;1.30;;
3841;SDS011;1936;47.074;15.336;2023-02-20T02:18:27;1.20;;;0.70;;
3841;SDS011;1936;47.074;15.336;2023-02-20T02:23:36;2.05;;;1.25;;
3841;SDS011;1936;47.074;15.336;2023-02-20T02:26:11;1.13;;;0.90;;
3841;SDS011;1936;47.074;15.336;2023-02-20T02:34:24;3.67;;;2.22;;
3841;SDS011;1936;47.074;15.336;2023-02-20T02:37:02;4.97;;;1.23;;
3841;SDS011;1936;47.074;15.336;2023-02-20T02:39:15;2.25;;;1.13;;
3841;SDS011;1936;47.074;15.336;2023-02-20T02:41:30;2.45;;;1.77;;
3841;SDS011;1936;47.074;15.336;2023-02-20T02:43:43;1.45;;;1.25;;
3841;SDS011;1936;47.074;15.336;2023-02-20T02:45:52;1.45;;;1.00;;
3841;SDS011;1936;47.074;15.336;2023-02-20T02:47:59;1.38;;;1.25;;
3841;SDS011;1936;47.074;15.336;2023-02-20T02:50:08;1.48;;;1.00;;
3841;SDS011;1936;47.074;15.336;2023-02-20T02:52:18;1.58;;;1.48;;
3841;SDS011;1936;47.074;15.336;2023-02-20T02:54:38;5.18;;;2.00;;
3841;SDS011;1936;47.074;15.336;2023-02-20T02:56:42;1.73;;;1.40;;
3841;SDS011;1936;47.074;15.336;2023-02-20T02:58:47;1.70;;;1.48;;
3841;SDS011;1936;47.074;15.336;2023-02-20T03:00:54;7.47;;;1.55;;
3841;SDS011;1936;47.074;15.336;2023-02-20T03:03:02;2.22;;;1.30;;
3841;SDS011;1936;47.074;15.336;2023-02-20T03:05:11;2.35;;;1.70;;
3841;SDS011;1936;47.074;15.336;2023-02-20T03:07:18;3.05;;;1.90;;
3841;SDS011;1936;47.074;15.336;2023-02-20T03:09:23;1.80;;;1.50;;
3841;SDS011;1936;47.074;15.336;2023-02-20T03:11:31;2.15;;;1.95;;
3841;SDS011;1936;47.074;15.336;2023-02-20T03:13:36;1.55;;;1.30;;
3841;SDS011;1936;47.074;15.336;2023-02-20T03:15:59;2.50;;;1.77;;
3841;SDS011;1936;47.074;15.336;2023-02-20T03:18:05;2.42;;;1.40;;
3841;SDS011;1936;47.074;15.336;2023-02-20T03:20:16;1.85;;;1.15;;
3841;SDS011;1936;47.074;15.336;2023-02-20T03:22:25;2.38;;;1.65;;
3841;SDS011;1936;47.074;15.336;2023-02-20T03:24:32;2.22;;;1.35;;
3841;SDS011;1936;47.074;15.336;2023-02-20T03:26:55;3.55;;;2.35;;
3841;SDS011;1936;47.074;15.336;2023-02-20T03:29:01;2.75;;;1.95;;
3841;SDS011;1936;47.074;15.336;2023-02-20T03:31:08;1.55;;;1.30;;
3841;SDS011;1936;47.074;15.336;2023-02-20T03:33:17;2.25;;;1.73;;
3841;SDS011;1936;47.074;15.336;2023-02-20T03:35:40;2.30;;;1.92;;
3841;SDS011;1936;47.074;15.336;2023-02-20T03:38:04;2.15;;;1.83;;
3841;SDS011;1936;47.074;15.336;2023-02-20T03:40:28;1.75;;;1.45;;
3841;SDS011;1936;47.074;15.336;2023-02-20T03:42:50;3.28;;;2.45;;
3841;SDS011;1936;47.074;15.336;2023-02-20T03:45:13;3.83;;;2.55;;
3841;SDS011;1936;47.074;15.336;2023-02-20T03:47:18;3.30;;;2.30;;
3841;SDS011;1936;47.074;15.336;2023-02-20T03:49:26;2.70;;;2.45;;
3841;SDS011;1936;47.074;15.336;2023-02-20T03:51:32;3.90;;;3.22;;
3841;SDS011;1936;47.074;15.336;2023-02-20T03:53:36;2.28;;;1.83;;
3841;SDS011;1936;47.074;15.336;2023-02-20T03:55:40;2.55;;;1.90;;
3841;SDS011;1936;47.074;15.336;2023-02-20T03:57:44;2.53;;;1.98;;
3841;SDS011;1936;47.074;15.336;2023-02-20T03:59:51;3.47;;;1.90;;
3841;SDS011;1936;47.074;15.336;2023-02-20T04:02:00;3.40;;;2.08;;
3841;SDS011;1936;47.074;15.336;2023-02-20T04:04:06;3.65;;;2.03;;
3841;SDS011;1936;47.074;15.336;2023-02-20T04:06:16;4.47;;;2.72;;
3841;SDS011;1936;47.074;15.336;2023-02-20T04:08:22;2.47;;;2.15;;
3841;SDS011;1936;47.074;15.336;2023-02-20T04:10:29;3.35;;;2.05;;
3841;SDS011;1936;47.074;15.336;2023-02-20T04:12:37;4.03;;;1.83;;
3841;SDS011;1936;47.074;15.336;2023-02-20T04:14:44;2.47;;;2.03;;
3841;SDS011;1936;47.074;15.336;2023-02-20T04:16:50;2.70;;;1.67;;
3841;SDS011;1936;47.074;15.336;2023-02-20T04:18:57;1.77;;;1.67;;
3841;SDS011;1936;47.074;15.336;2023-02-20T04:21:00;3.38;;;2.40;;
3841;SDS011;1936;47.074;15.336;2023-02-20T04:23:09;1.83;;;1.60;;
3841;SDS011;1936;47.074;15.336;2023-02-20T04:25:17;4.85;;;1.77;;
3841;SDS011;1936;47.074;15.336;2023-02-20T04:27:30;2.83;;;1.50;;
3841;SDS011;1936;47.074;15.336;2023-02-20T04:29:34;1.67;;;1.58;;
3841;SDS011;1936;47.074;15.336;2023-02-20T04:31:38;3.67;;;1.95;;
3841;SDS011;1936;47.074;15.336;2023-02-20T04:33:41;2.30;;;1.90;;
3841;SDS011;1936;47.074;15.336;2023-02-20T04:35:48;3.00;;;1.80;;
3841;SDS011;1936;47.074;15.336;2023-02-20T04:37:52;3.63;;;1.90;;
3841;SDS011;1936;47.074;15.336;2023-02-20T04:39:57;1.52;;;1.33;;
3841;SDS011;1936;47.074;15.336;2023-02-20T04:42:00;1.40;;;1.30;;
3841;SDS011;1936;47.074;15.336;2023-02-20T04:44:05;1.80;;;1.40;;
3841;SDS011;1936;47.074;15.336;2023-02-20T04:46:26;2.30;;;2.08;;
3841;SDS011;1936;47.074;15.336;2023-02-20T04:48:29;1.00;;;0.88;;
3841;SDS011;1936;47.074;15.336;2023-02-20T04:50:33;1.98;;;1.60;;
3841;SDS011;1936;47.074;15.336;2023-02-20T04:52:37;1.50;;;1.40;;
3841;SDS011;1936;47.074;15.336;2023-02-20T04:54:42;2.15;;;1.70;;
3841;SDS011;1936;47.074;15.336;2023-02-20T04:56:45;1.45;;;1.35;;
3841;SDS011;1936;47.074;15.336;2023-02-20T04:58:48;2.10;;;1.40;;
3841;SDS011;1936;47.074;15.336;2023-02-20T05:00:54;1.75;;;1.55;;
3841;SDS011;1936;47.074;15.336;2023-02-20T05:02:57;2.10;;;1.15;;
3841;SDS011;1936;47.074;15.336;2023-02-20T05:05:00;2.97;;;1.58;;
3841;SDS011;1936;47.074;15.336;2023-02-20T05:07:04;2.03;;;1.73;;
3841;SDS011;1936;47.074;15.336;2023-02-20T05:09:07;2.38;;;1.60;;
3841;SDS011;1936;47.074;15.336;2023-02-20T05:11:11;1.42;;;1.33;;
3841;SDS011;1936;47.074;15.336;2023-02-20T05:13:14;2.38;;;1.90;;
3841;SDS011;1936;47.074;15.336;2023-02-20T05:15:18;2.63;;;1.60;;
3841;SDS011;1936;47.074;15.336;2023-02-20T05:17:23;2.95;;;1.83;;
3841;SDS011;1936;47.074;15.336;2023-02-20T05:19:26;1.98;;;1.45;;
3841;SDS011;1936;47.074;15.336;2023-02-20T05:21:30;2.15;;;1.65;;
3841;SDS011;1936;47.074;15.336;2023-02-20T05:23:50;3.00;;;2.50;;
3841;SDS011;1936;47.074;15.336;2023-02-20T05:25:54;2.75;;;1.40;;
3841;SDS011;1936;47.074;15.336;2023-02-20T05:27:57;2.10;;;1.90;;
3841;SDS011;1936;47.074;15.336;2023-02-20T05:30:01;2.13;;;1.40;;
3841;SDS011;1936;47.074;15.336;2023-02-20T05:32:05;1.90;;;1.70;;
3841;SDS011;1936;47.074;15.336;2023-02-20T05:34:10;2.22;;;1.40;;
3841;SDS011;1936;47.074;15.336;2023-02-20T05:36:13;1.95;;;1.60;;
3841;SDS011;1936;47.074;15.336;2023-02-20T05:38:18;2.20;;;2.00;;
3841;SDS011;1936;47.074;15.336;2023-02-20T05:40:21;1.83;;;1.52;;
3841;SDS011;1936;47.074;15.336;2023-02-20T05:42:25;2.88;;;1.70;;
3841;SDS011;1936;47.074;15.336;2023-02-20T05:44:28;4.07;;;1.48;;
3841;SDS011;1936;47.074;15.336;2023-02-20T05:46:31;1.52;;;1.30;;
3841;SDS011;1936;47.074;15.336;2023-02-20T05:48:40;2.78;;;1.60;;
3841;SDS011;1936;47.074;15.336;2023-02-20T05:50:45;1.65;;;1.55;;
3841;SDS011;1936;47.074;15.336;2023-02-20T05:52:50;1.90;;;1.80;;
3841;SDS011;1936;47.074;15.336;2023-02-20T05:54:54;3.83;;;2.03;;
3841;SDS011;1936;47.074;15.336;2023-02-20T05:56:57;2.22;;;2.03;;
3841;SDS011;1936;47.074;15.336;2023-02-20T05:59:02;2.17;;;1.95;;
3841;SDS011;1936;47.074;15.336;2023-02-20T06:01:06;2.60;;;2.40;;
3841;SDS011;1936;47.074;15.336;2023-02-20T06:03:13;3.30;;;2.88;;
3841;SDS011;1936;47.074;15.336;2023-02-20T06:05:17;2.70;;;2.10;;
3841;SDS011;1936;47.074;15.336;2023-02-20T06:07:22;7.22;;;3.60;;
3841;SDS011;1936;47.074;15.336;2023-02-20T06:09:25;3.95;;;2.30;;
3841;SDS011;1936;47.074;15.336;2023-02-20T06:11:29;2.58;;;2.35;;
3841;SDS011;1936;47.074;15.336;2023-02-20T06:13:32;2.70;;;2.50;;
3841;SDS011;1936;47.074;15.336;2023-02-20T06:15:36;2.60;;;2.40;;
3841;SDS011;1936;47.074;15.336;2023-02-20T06:17:39;5.63;;;2.85;;
3841;SDS011;1936;47.074;15.336;2023-02-20T06:19:45;2.45;;;2.25;;
3841;SDS011;1936;47.074;15.336;2023-02-20T06:21:48;4.82;;;2.00;;
3841;SDS011;1936;47.074;15.336;2023-02-20T06:23:55;2.88;;;2.50;;
3841;SDS011;1936;47.074;15.336;2023-02-20T06:25:58;4.53;;;2.20;;
3841;SDS011;1936;47.074;15.336;2023-02-20T06:28:02;6.45;;;2.17;;
3841;SDS011;1936;47.074;15.336;2023-02-20T06:30:06;2.80;;;2.42;;
3841;SDS011;1936;47.074;15.336;2023-02-20T06:32:10;1.85;;;1.75;;
3841;SDS011;1936;47.074;15.336;2023-02-20T06:34:13;4.88;;;2.47;;
3841;SDS011;1936;47.074;15.336;2023-02-20T06:36:18;3.97;;;2.45;;
3841;SDS011;1936;47.074;15.336;2023-02-20T06:38:23;3.35;;;2.63;;
3841;SDS011;1936;47.074;15.336;2023-02-20T06:40:28;2.28;;;2.08;;
3841;SDS011;1936;47.074;15.336;2023-02-20T06:42:31;3.60;;;2.08;;
3841;SDS011;1936;47.074;15.336;2023-02-20T06:44:35;1.88;;;1.75;;
3841;SDS011;1936;47.074;15.336;2023-02-20T06:46:38;2.33;;;2.13;;
3841;SDS011;1936;47.074;15.336;2023-02-20T06:48:44;4.05;;;2.85;;
3841;SDS011;1936;47.074;15.336;2023-02-20T06:50:49;3.13;;;2.58;;
3841;SDS011;1936;47.074;15.336;2023-02-20T06:52:56;4.13;;;2.05;;
3841;SDS011;1936;47.074;15.336;2023-02-20T06:54:59;3.45;;;2.58;;
3841;SDS011;1936;47.074;15.336;2023-02-20T06:57:04;4.15;;;3.08;;
3841;SDS011;1936;47.074;15.336;2023-02-20T06:59:08;4.82;;;3.45;;
3841;SDS011;1936;47.074;15.336;2023-02-20T07:01:11;5.20;;;4.70;;
3841;SDS011;1936;47.074;15.336;2023-02-20T07:03:15;5.53;;;3.70;;
3841;SDS011;1936;47.074;15.336;2023-02-20T07:05:18;3.88;;;3.40;;
3841;SDS011;1936;47.074;15.336;2023-02-20T07:07:21;4.55;;;2.97;;
3841;SDS011;1936;47.074;15.336;2023-02-20T07:09:25;2.95;;;2.17;;
3841;SDS011;1936;47.074;15.336;2023-02-20T07:11:28;2.13;;;1.60;;
3841;SDS011;1936;47.074;15.336;2023-02-20T07:13:33;3.05;;;2.10;;
3841;SDS011;1936;47.074;15.336;2023-02-20T07:15:36;3.05;;;2.20;;
3841;SDS011;1936;47.074;15.336;2023-02-20T07:17:40;3.83;;;2.75;;
3841;SDS011;1936;47.074;15.336;2023-02-20T07:19:43;3.90;;;2.92;;
3841;SDS011;1936;47.074;15.336;2023-02-20T07:21:47;4.65;;;2.75;;
3841;SDS011;1936;47.074;15.336;2023-02-20T07:23:51;2.92;;;2.50;;
3841;SDS011;1936;47.074;15.336;2023-02-20T07:25:55;2.20;;;2.00;;
3841;SDS011;1936;47.074;15.336;2023-02-20T07:27:58;4.85;;;1.65;;
3841;SDS011;1936;47.074;15.336;2023-02-20T07:30:04;3.25;;;1.55;;
3841;SDS011;1936;47.074;15.336;2023-02-20T07:32:07;3.67;;;1.92;;
3841;SDS011;1936;47.074;15.336;2023-02-20T07:34:11;2.25;;;1.58;;
3841;SDS011;1936;47.074;15.336;2023-02-20T07:36:15;2.50;;;1.83;;
3841;SDS011;1936;47.074;15.336;2023-02-20T07:38:18;2.17;;;1.87;;
3841;SDS011;1936;47.074;15.336;2023-02-20T07:40:22;1.83;;;1.63;;
3841;SDS011;1936;47.074;15.336;2023-02-20T07:42:25;1.93;;;1.83;;
3841;SDS011;1936;47.074;15.336;2023-02-20T07:44:29;3.47;;;2.30;;
3841;SDS011;1936;47.074;15.336;2023-02-20T07:46:35;1.93;;;1.40;;
3841;SDS011;1936;47.074;15.336;2023-02-20T07:48:38;2.53;;;2.33;;
3841;SDS011;1936;47.074;15.336;2023-02-20T07:50:41;2.73;;;1.90;;
3841;SDS011;1936;47.074;15.336;2023-02-20T07:52:45;2.77;;;2.43;;
3841;SDS011;1936;47.074;15.336;2023-02-20T07:54:49;2.60;;;1.87;;
3841;SDS011;1936;47.074;15.336;2023-02-20T07:56:52;2.37;;;2.13;;
3841;SDS011;1936;47.074;15.336;2023-02-20T07:58:56;2.73;;;2.53;;
3841;SDS011;1936;47.074;15.336;2023-02-20T08:01:01;1.90;;;1.70;;
3841;SDS011;1936;47.074;15.336;2023-02-20T08:03:06;3.27;;;2.67;;
3841;SDS011;1936;47.074;15.336;2023-02-20T08:05:09;3.90;;;1.73;;
3841;SDS011;1936;47.074;15.336;2023-02-20T08:07:13;2.47;;;2.20;;
3841;SDS011;1936;47.074;15.336;2023-02-20T08:09:16;2.73;;;2.17;;
3841;SDS011;1936;47.074;15.336;2023-02-20T08:11:21;2.70;;;1.97;;
3841;SDS011;1936;47.074;15.336;2023-02-20T08:13:25;2.47;;;1.80;;
3841;SDS011;1936;47.074;15.336;2023-02-20T08:15:29;3.00;;;1.80;;
3841;SDS011;1936;47.074;15.336;2023-02-20T08:17:32;2.13;;;1.93;;
3841;SDS011;1936;47.074;15.336;2023-02-20T08:19:48;2.10;;;1.80;;
3841;SDS011;1936;47.074;15.336;2023-02-20T08:21:51;2.30;;;2.10;;
3841;SDS011;1936;47.074;15.336;2023-02-20T08:23:57;1.80;;;1.50;;
3841;SDS011;1936;47.074;15.336;2023-02-20T08:26:01;2.30;;;1.97;;
3841;SDS011;1936;47.074;15.336;2023-02-20T08:28:09;2.83;;;2.17;;
3841;SDS011;1936;47.074;15.336;2023-02-20T08:30:13;1.67;;;1.57;;
3841;SDS011;1936;47.074;15.336;2023-02-20T08:32:18;2.20;;;1.70;;
3841;SDS011;1936;47.074;15.336;2023-02-20T08:34:22;4.77;;;1.90;;
3841;SDS011;1936;47.074;15.336;2023-02-20T08:36:26;2.33;;;1.90;;
3841;SDS011;1936;47.074;15.336;2023-02-20T08:38:31;1.90;;;1.70;;
3841;SDS011;1936;47.074;15.336;2023-02-20T08:40:36;2.10;;;1.90;;
3841;SDS011;1936;47.074;15.336;2023-02-20T08:42:39;2.10;;;1.70;;
3841;SDS011;1936;47.074;15.336;2023-02-20T08:44:42;2.87;;;2.47;;
3841;SDS011;1936;47.074;15.336;2023-02-20T08:46:46;2.60;;;2.37;;
3841;SDS011;1936;47.074;15.336;2023-02-20T08:48:50;2.57;;;2.37;;
3841;SDS011;1936;47.074;15.336;2023-02-20T08:50:53;2.33;;;2.13;;
3841;SDS011;1936;47.074;15.336;2023-02-20T08:52:58;2.77;;;2.57;;
3841;SDS011;1936;47.074;15.336;2023-02-20T08:55:02;2.43;;;2.00;;
3841;SDS011;1936;47.074;15.336;2023-02-20T08:57:06;3.33;;;2.40;;
3841;SDS011;1936;47.074;15.336;2023-02-20T08:59:09;2.77;;;2.20;;
3841;SDS011;1936;47.074;15.336;2023-02-20T09:01:12;3.47;;;2.40;;
3841;SDS011;1936;47.074;15.336;2023-02-20T09:03:16;3.00;;;2.53;;
3841;SDS011;1936;47.074;15.336;2023-02-20T09:05:19;2.17;;;1.97;;
3841;SDS011;1936;47.074;15.336;2023-02-20T09:07:23;2.67;;;1.77;;
3841;SDS011;1936;47.074;15.336;2023-02-20T09:09:28;2.60;;;2.10;;
3841;SDS011;1936;47.074;15.336;2023-02-20T09:11:32;2.03;;;1.83;;
3841;SDS011;1936;47.074;15.336;2023-02-20T09:13:40;3.13;;;1.90;;
3841;SDS011;1936;47.074;15.336;2023-02-20T09:15:44;2.97;;;2.30;;
3841;SDS011;1936;47.074;15.336;2023-02-20T09:17:48;2.03;;;1.40;;
3841;SDS011;1936;47.074;15.336;2023-02-20T09:19:57;2.20;;;2.00;;
3841;SDS011;1936;47.074;15.336;2023-02-20T09:22:00;2.03;;;1.73;;
3841;SDS011;1936;47.074;15.336;2023-02-20T09:24:04;1.67;;;1.40;;
3841;SDS011;1936;47.074;15.336;2023-02-20T09:26:10;2.37;;;1.53;;
3841;SDS011;1936;47.074;15.336;2023-02-20T09:28:14;2.13;;;1.70;;
3841;SDS011;1936;47.074;15.336;2023-02-20T09:30:18;1.47;;;1.37;;
3841;SDS011;1936;47.074;15.336;2023-02-20T09:32:22;3.13;;;1.87;;
3841;SDS011;1936;47.074;15.336;2023-02-20T09:34:26;2.10;;;1.90;;
3841;SDS011;1936;47.074;15.336;2023-02-20T09:36:33;4.27;;;2.13;;
3841;SDS011;1936;47.074;15.336;2023-02-20T09:38:36;2.43;;;2.20;;
3841;SDS011;1936;47.074;15.336;2023-02-20T09:40:40;2.30;;;2.10;;
3841;SDS011;1936;47.074;15.336;2023-02-20T09:42:52;1.93;;;1.73;;
3841;SDS011;1936;47.074;15.336;2023-02-20T09:45:13;2.23;;;1.90;;
3841;SDS011;1936;47.074;15.336;2023-02-20T09:47:26;2.20;;;1.80;;
3841;SDS011;1936;47.074;15.336;2023-02-20T09:49:39;4.17;;;2.20;;
3841;SDS011;1936;47.074;15.336;2023-02-20T09:51:44;3.33;;;1.90;;
3841;SDS011;1936;47.074;15.336;2023-02-20T09:53:54;2.10;;;1.40;;
3841;SDS011;1936;47.074;15.336;2023-02-20T09:56:03;2.67;;;2.10;;
3841;SDS011;1936;47.074;15.336;2023-02-20T09:58:17;2.70;;;1.70;;
3841;SDS011;1936;47.074;15.336;2023-02-20T10:00:26;2.30;;;2.10;;
3841;SDS011;1936;47.074;15.336;2023-02-20T10:02:33;2.30;;;2.10;;
3841;SDS011;1936;47.074;15.336;2023-02-20T10:04:41;1.93;;;1.73;;
3841;SDS011;1936;47.074;15.336;2023-02-20T10:07:03;2.10;;;1.90;;
3841;SDS011;1936;47.074;15.336;2023-02-20T10:09:16;2.20;;;2.00;;
3841;SDS011;1936;47.074;15.336;2023-02-20T10:11:23;2.20;;;1.77;;
3841;SDS011;1936;47.074;15.336;2023-02-20T10:13:51;2.97;;;1.80;;
3841;SDS011;1936;47.074;15.336;2023-02-20T10:16:02;2.50;;;1.93;;
3841;SDS011;1936;47.074;15.336;2023-02-20T10:18:16;2.63;;;2.10;;
3841;SDS011;1936;47.074;15.336;2023-02-20T10:20:29;3.53;;;2.20;;
3841;SDS011;1936;47.074;15.336;2023-02-20T10:22:40;2.40;;;2.17;;
3841;SDS011;1936;47.074;15.336;2023-02-20T10:24:53;2.67;;;1.80;;
3841;SDS011;1936;47.074;15.336;2023-02-20T10:29:30;2.93;;;2.03;;
3841;SDS011;1936;47.074;15.336;2023-02-20T10:31:38;2.43;;;2.23;;
3841;SDS011;1936;47.074;15.336;2023-02-20T10:33:46;2.70;;;2.03;;
3841;SDS011;1936;47.074;15.336;2023-02-20T10:35:52;2.70;;;2.50;;
3841;SDS011;1936;47.074;15.336;2023-02-20T10:38:03;2.40;;;2.20;;
3841;SDS011;1936;47.074;15.336;2023-02-20T10:40:12;3.03;;;2.63;;
3841;SDS011;1936;47.074;15.336;2023-02-20T10:42:21;3.17;;;1.80;;
3841;SDS011;1936;47.074;15.336;2023-02-20T10:44:34;2.90;;;2.43;;
3841;SDS011;1936;47.074;15.336;2023-02-20T10:46:55;3.83;;;2.27;;
3841;SDS011;1936;47.074;15.336;2023-02-20T10:49:01;1.80;;;1.70;;
3841;SDS011;1936;47.074;15.336;2023-02-20T10:51:11;3.17;;;2.40;;
3841;SDS011;1936;47.074;15.336;2023-02-20T10:53:21;3.87;;;2.00;;
3841;SDS011;1936;47.074;15.336;2023-02-20T10:55:29;2.00;;;1.80;;
3841;SDS011;1936;47.074;15.336;2023-02-20T10:57:43;3.77;;;1.40;;
3841;SDS011;1936;47.074;15.336;2023-02-20T10:59:53;3.70;;;1.97;;
3841;SDS011;1936;47.074;15.336;2023-02-20T11:02:04;4.27;;;1.73;;
3841;SDS011;1936;47.074;15.336;2023-02-20T11:04:16;5.43;;;1.57;;
3841;SDS011;1936;47.074;15.336;2023-02-20T11:06:24;3.30;;;1.90;;
3841;SDS011;1936;47.074;15.336;2023-02-20T11:08:32;1.43;;;1.20;;
3841;SDS011;1936;47.074;15.336;2023-02-20T11:10:35;1.77;;;0.93;;
3841;SDS011;1936;47.074;15.336;2023-02-20T11:12:40;2.27;;;1.67;;
3841;SDS011;1936;47.074;15.336;2023-02-20T11:14:48;2.50;;;1.60;;
3841;SDS011;1936;47.074;15.336;2023-02-20T11:16:55;2.30;;;2.10;;
3841;SDS011;1936;47.074;15.336;2023-02-20T11:19:02;2.57;;;1.67;;
3841;SDS011;1936;47.074;15.336;2023-02-20T11:21:10;3.47;;;1.63;;
3841;SDS011;1936;47.074;15.336;2023-02-20T11:23:39;2.03;;;1.60;;
3841;SDS011;1936;47.074;15.336;2023-02-20T11:25:44;2.30;;;1.60;;
3841;SDS011;1936;47.074;15.336;2023-02-20T11:27:49;3.80;;;1.53;;
3841;SDS011;1936;47.074;15.336;2023-02-20T11:29:58;2.37;;;1.67;;
3841;SDS011;1936;47.074;15.336;2023-02-20T11:34:36;6.83;;;2.13;;
3841;SDS011;1936;47.074;15.336;2023-02-20T11:36:41;4.83;;;1.93;;
3841;SDS011;1936;47.074;15.336;2023-02-20T11:38:47;4.80;;;1.30;;
3841;SDS011;1936;47.074;15.336;2023-02-20T11:40:59;1.50;;;1.20;;
3841;SDS011;1936;47.074;15.336;2023-02-20T11:43:09;1.50;;;1.37;;
3841;SDS011;1936;47.074;15.336;2023-02-20T11:45:21;4.80;;;1.20;;
3841;SDS011;1936;47.074;15.336;2023-02-20T11:47:31;1.70;;;1.20;;
3841;SDS011;1936;47.074;15.336;2023-02-20T11:49:34;3.60;;;2.40;;
3841;SDS011;1936;47.074;15.336;2023-02-20T11:51:39;3.73;;;1.20;;
3841;SDS011;1936;47.074;15.336;2023-02-20T11:53:43;3.60;;;1.17;;
3841;SDS011;1936;47.074;15.336;2023-02-20T11:55:47;1.80;;;1.60;;
3841;SDS011;1936;47.074;15.336;2023-02-20T11:58:01;2.80;;;1.40;;
3841;SDS011;1936;47.074;15.336;2023-02-20T12:00:09;1.87;;;1.67;;
3841;SDS011;1936;47.074;15.336;2023-02-20T12:02:23;1.73;;;1.33;;
3841;SDS011;1936;47.074;15.336;2023-02-20T12:04:29;1.40;;;1.30;;
3841;SDS011;1936;47.074;15.336;2023-02-20T12:06:37;2.30;;;0.90;;
3841;SDS011;1936;47.074;15.336;2023-02-20T12:08:46;2.43;;;1.60;;
3841;SDS011;1936;47.074;15.336;2023-02-20T12:10:54;4.17;;;1.63;;
3841;SDS011;1936;47.074;15.336;2023-02-20T12:13:01;3.57;;;1.53;;
3841;SDS011;1936;47.074;15.336;2023-02-20T12:15:10;2.67;;;1.47;;
3841;SDS011;1936;47.074;15.336;2023-02-20T12:17:18;2.77;;;1.73;;
3841;SDS011;1936;47.074;15.336;2023-02-20T12:19:35;3.67;;;1.70;;
3841;SDS011;1936;47.074;15.336;2023-02-20T12:21:54;2.10;;;1.23;;
3841;SDS011;1936;47.074;15.336;2023-02-20T12:24:08;2.87;;;1.20;;
3841;SDS011;1936;47.074;15.336;2023-02-20T12:26:24;2.70;;;1.60;;
3841;SDS011;1936;47.074;15.336;2023-02-20T12:28:40;2.30;;;1.83;;
3841;SDS011;1936;47.074;15.336;2023-02-20T12:30:59;2.50;;;1.30;;
3841;SDS011;1936;47.074;15.336;2023-02-20T12:33:32;5.07;;;1.73;;
3841;SDS011;1936;47.074;15.336;2023-02-20T12:35:48;2.80;;;1.40;;
3841;SDS011;1936;47.074;15.336;2023-02-20T12:38:02;1.93;;;1.20;;
3841;SDS011;1936;47.074;15.336;2023-02-20T12:42:41;2.37;;;1.40;;
3841;SDS011;1936;47.074;15.336;2023-02-20T12:45:08;3.80;;;1.30;;
3841;SDS011;1936;47.074;15.336;2023-02-20T12:47:23;4.90;;;2.27;;
3841;SDS011;1936;47.074;15.336;2023-02-20T12:49:40;2.00;;;1.43;;
3841;SDS011;1936;47.074;15.336;2023-02-20T12:52:00;1.77;;;1.50;;
3841;SDS011;1936;47.074;15.336;2023-02-20T12:54:13;2.63;;;1.67;;
3841;SDS011;1936;47.074;15.336;2023-02-20T12:56:25;3.60;;;1.27;;
3841;SDS011;1936;47.074;15.336;2023-02-20T12:58:41;2.13;;;1.50;;
3841;SDS011;1936;47.074;15.336;2023-02-20T13:00:51;4.83;;;1.63;;
3841;SDS011;1936;47.074;15.336;2023-02-20T13:02:58;1.60;;;1.40;;
3841;SDS011;1936;47.074;15.336;2023-02-20T13:05:07;1.47;;;1.00;;
3841;SDS011;1936;47.074;15.336;2023-02-20T13:07:16;2.43;;;1.17;;
3841;SDS011;1936;47.074;15.336;2023-02-20T13:09:22;3.07;;;1.73;;
3841;SDS011;1936;47.074;15.336;2023-02-20T13:11:29;2.73;;;1.57;;
3841;SDS011;1936;47.074;15.336;2023-02-20T13:13:40;1.43;;;0.77;;